Time,TemperatureF,DewpointF,PressureIn,WindDirection,WindDirectionDegrees,WindSpeedMPH,WindSpeedGustMPH,Humidity,HourlyPrecipIn,Conditions,Clouds,dailyrainin,SoftwareType,DateUTC
2013-05-30 00:01:00,66.7,61.1,0.00,ESE,117,4.9,4.9,82,0.00,,---,0.00,VWS V14.01,2013-05-30 04:01:00,
2013-05-30 00:06:00,66.7,61.1,0.00,SW,232,0.0,0.0,82,0.00,,---,0.00,VWS V14.01,2013-05-30 04:06:00,
2013-05-30 00:11:00,66.7,61.1,0.00,South,188,0.0,0.0,82,0.00,,---,0.00,VWS V14.01,2013-05-30 04:11:00,
2013-05-30 00:16:00,66.4,60.7,0.00,NNE,17,0.0,0.0,82,0.00,,---,0.00,VWS V14.01,2013-05-30 04:16:00,
2013-05-30 00:21:00,66.4,60.7,0.00,WSW,245,0.0,0.0,82,0.00,,---,0.00,VWS V14.01,2013-05-30 04:21:00,
2013-05-30 00:26:00,66.4,60.4,0.00,South,170,0.0,0.0,81,0.00,,---,0.00,VWS V14.01,2013-05-30 04:26:00,
2013-05-30 00:31:00,66.2,60.2,0.00,South,183,3.6,3.6,81,0.00,,---,0.00,VWS V14.01,2013-05-30 04:31:00,
2013-05-30 00:36:00,66.2,60.2,0.00,South,183,3.6,3.6,81,0.00,,---,0.00,VWS V14.01,2013-05-30 04:36:00,
2013-05-30 00:41:00,66.0,60.4,0.00,North,357,0.0,0.0,82,0.00,,---,0.00,VWS V14.01,2013-05-30 04:41:00,
2013-05-30 00:46:00,66.0,60.4,0.00,South,179,0.0,0.0,82,0.00,,---,0.00,VWS V14.01,2013-05-30 04:46:00,
2013-05-30 00:51:00,65.8,60.2,0.00,ESE,117,0.0,0.0,82,0.00,,---,0.00,VWS V14.01,2013-05-30 04:51:00,
2013-05-30 00:56:00,65.8,60.2,0.00,South,189,2.7,2.7,82,0.00,,---,0.00,VWS V14.01,2013-05-30 04:56:00,
2013-05-30 01:01:00,65.8,60.2,0.00,SSW,210,0.0,0.0,82,0.00,,---,0.00,VWS V14.01,2013-05-30 05:01:00,
2013-05-30 01:06:00,65.8,60.2,0.00,South,187,0.0,0.0,82,0.00,,---,0.00,VWS V14.01,2013-05-30 05:06:00,
2013-05-30 01:11:00,65.8,60.2,0.00,South,173,2.7,2.7,82,0.00,,---,0.00,VWS V14.01,2013-05-30 05:11:00,
2013-05-30 01:16:00,65.8,60.2,0.00,North,0,0.0,0.0,82,0.00,,---,0.00,VWS V14.01,2013-05-30 05:16:00,
2013-05-30 01:21:00,65.8,60.2,0.00,SSE,151,0.0,0.0,82,0.00,,---,0.00,VWS V14.01,2013-05-30 05:21:00,
2013-05-30 01:26:00,65.8,60.2,0.00,SSE,163,0.0,0.0,82,0.00,,---,0.00,VWS V14.01,2013-05-30 05:26:00,
2013-05-30 01:31:00,65.8,60.2,0.00,East,101,2.2,2.2,82,0.00,,---,0.00,VWS V14.01,2013-05-30 05:31:00,
2013-05-30 01:36:00,66.0,60.4,0.00,SE,126,2.7,2.7,82,0.00,,---,0.00,VWS V14.01,2013-05-30 05:36:00,
2013-05-30 01:41:00,66.2,60.5,0.00,NNE,18,2.7,2.7,82,0.00,,---,0.00,VWS V14.01,2013-05-30 05:41:00,
2013-05-30 01:46:00,66.4,60.7,0.00,SSE,152,2.2,2.2,82,0.00,,---,0.00,VWS V14.01,2013-05-30 05:46:00,
2013-05-30 01:51:00,66.7,61.4,0.00,West,263,0.0,0.0,83,0.00,,---,0.00,VWS V14.01,2013-05-30 05:51:00,
2013-05-30 01:56:00,66.7,61.4,0.00,SW,232,3.1,3.1,83,0.00,,---,0.00,VWS V14.01,2013-05-30 05:56:00,
2013-05-30 02:01:00,66.9,61.2,0.00,SW,232,3.1,3.1,82,0.00,,---,0.00,VWS V14.01,2013-05-30 06:01:00,
2013-05-30 02:06:00,66.7,61.1,0.00,North,353,5.4,5.4,82,0.00,,---,0.00,VWS V14.01,2013-05-30 06:06:00,
2013-05-30 02:11:00,66.7,61.1,0.00,North,11,2.7,2.7,82,0.00,,---,0.00,VWS V14.01,2013-05-30 06:11:00,
2013-05-30 02:16:00,66.6,60.6,0.00,WSW,254,5.4,5.4,81,0.00,,---,0.00,VWS V14.01,2013-05-30 06:16:00,
2013-05-30 02:21:00,66.6,60.2,0.00,WNW,300,2.2,2.2,80,0.00,,---,0.00,VWS V14.01,2013-05-30 06:21:00,
2013-05-30 02:26:00,66.6,60.2,0.00,NW,315,3.6,3.6,80,0.00,,---,0.00,VWS V14.01,2013-05-30 06:26:00,
2013-05-30 02:31:00,66.6,60.2,0.00,ESE,117,5.8,5.8,80,0.00,,---,0.00,VWS V14.01,2013-05-30 06:31:00,
2013-05-30 02:36:00,66.2,59.5,0.00,West,281,3.1,3.1,79,0.00,,---,0.00,VWS V14.01,2013-05-30 06:36:00,
2013-05-30 02:41:00,66.2,59.5,0.00,SSW,199,3.1,3.1,79,0.00,,---,0.00,VWS V14.01,2013-05-30 06:41:00,
2013-05-30 02:46:00,66.2,59.5,0.00,East,83,0.0,0.0,79,0.00,,---,0.00,VWS V14.01,2013-05-30 06:46:00,
2013-05-30 02:51:00,65.8,58.8,0.00,East,86,0.0,4.0,78,0.00,,---,0.00,VWS V14.01,2013-05-30 06:51:00,
2013-05-30 02:56:00,65.8,58.8,0.00,ESE,104,5.4,8.1,78,0.00,,---,0.00,VWS V14.01,2013-05-30 06:56:00,
2013-05-30 03:01:00,65.7,58.3,0.00,South,181,3.1,3.1,77,0.00,,---,0.00,VWS V14.01,2013-05-30 07:01:00,
2013-05-30 03:06:00,65.7,58.3,0.00,East,86,4.0,4.0,77,0.00,,---,0.00,VWS V14.01,2013-05-30 07:06:00,
2013-05-30 03:11:00,65.7,57.9,0.00,North,1,3.1,3.1,76,0.00,,---,0.00,VWS V14.01,2013-05-30 07:11:00,
2013-05-30 03:16:00,65.5,57.7,0.00,West,274,2.7,2.7,76,0.00,,---,0.00,VWS V14.01,2013-05-30 07:16:00,
2013-05-30 03:21:00,65.5,57.7,0.00,WNW,301,0.0,0.0,76,0.00,,---,0.00,VWS V14.01,2013-05-30 07:21:00,
2013-05-30 03:26:00,65.3,57.5,0.00,SE,132,0.0,0.0,76,0.00,,---,0.00,VWS V14.01,2013-05-30 07:26:00,
2013-05-30 03:31:00,65.3,57.5,0.00,NNW,342,2.2,2.2,76,0.00,,---,0.00,VWS V14.01,2013-05-30 07:31:00,
2013-05-30 03:36:00,65.1,57.0,0.00,NNW,342,2.2,2.2,75,0.00,,---,0.00,VWS V14.01,2013-05-30 07:36:00,
2013-05-30 03:41:00,64.9,56.8,0.00,WSW,243,3.1,3.1,75,0.00,,---,0.00,VWS V14.01,2013-05-30 07:41:00,
2013-05-30 03:46:00,64.9,56.8,0.00,South,189,7.2,7.2,75,0.00,,---,0.00,VWS V14.01,2013-05-30 07:46:00,
2013-05-30 03:51:00,64.8,56.7,0.00,ENE,57,7.6,7.6,75,0.00,,---,0.00,VWS V14.01,2013-05-30 07:51:00,
2013-05-30 03:56:00,64.8,56.3,0.00,ENE,57,7.6,7.6,74,0.00,,---,0.00,VWS V14.01,2013-05-30 07:56:00,
2013-05-30 04:00:00,64.6,56.1,0.00,SW,215,4.0,4.0,74,0.00,,---,0.00,VWS V14.01,2013-05-30 08:00:00,
2013-05-30 04:05:00,64.4,55.6,0.00,WSW,252,3.1,3.1,73,0.00,,---,0.00,VWS V14.01,2013-05-30 08:05:00,
2013-05-30 04:10:00,64.4,55.6,0.00,WSW,252,3.1,3.1,73,0.00,,---,0.00,VWS V14.01,2013-05-30 08:10:00,
2013-05-30 04:15:00,64.2,55.4,0.00,West,270,0.0,0.0,73,0.00,,---,0.00,VWS V14.01,2013-05-30 08:15:00,
2013-05-30 04:20:00,64.2,55.4,0.00,West,266,2.7,2.7,73,0.00,,---,0.00,VWS V14.01,2013-05-30 08:20:00,
2013-05-30 04:25:00,64.2,55.8,0.00,WSW,248,2.7,2.7,74,0.00,,---,0.00,VWS V14.01,2013-05-30 08:25:00,
2013-05-30 04:30:00,64.2,55.8,0.00,SW,235,0.0,3.6,74,0.00,,---,0.00,VWS V14.01,2013-05-30 08:30:00,
2013-05-30 04:35:00,64.2,55.8,0.00,West,263,2.2,2.2,74,0.00,,---,0.00,VWS V14.01,2013-05-30 08:35:00,
2013-05-30 04:40:00,64.2,55.8,0.00,NNW,346,0.0,0.0,74,0.00,,---,0.00,VWS V14.01,2013-05-30 08:40:00,
2013-05-30 04:45:00,64.2,55.4,0.00,SSE,156,0.0,0.0,73,0.00,,---,0.00,VWS V14.01,2013-05-30 08:45:00,
2013-05-30 04:50:00,64.2,55.4,0.00,SW,214,0.0,0.0,73,0.00,,---,0.00,VWS V14.01,2013-05-30 08:50:00,
2013-05-30 04:55:00,64.2,55.4,0.00,SSW,211,0.0,0.0,73,0.00,,---,0.00,VWS V14.01,2013-05-30 08:55:00,
2013-05-30 05:00:00,64.2,55.4,0.00,ESE,102,0.0,0.0,73,0.00,,---,0.00,VWS V14.01,2013-05-30 09:00:00,
2013-05-30 05:05:00,64.2,55.4,0.00,West,261,2.2,3.1,73,0.00,,---,0.00,VWS V14.01,2013-05-30 09:05:00,
2013-05-30 05:10:00,63.9,55.4,0.00,West,261,2.2,2.2,74,0.00,,---,0.00,VWS V14.01,2013-05-30 09:10:00,
2013-05-30 05:15:00,63.9,55.4,0.00,North,6,0.0,0.0,74,0.00,,---,0.00,VWS V14.01,2013-05-30 09:15:00,
2013-05-30 05:20:00,63.9,55.4,0.00,East,97,0.0,0.0,74,0.00,,---,0.00,VWS V14.01,2013-05-30 09:20:00,
2013-05-30 05:25:00,63.9,55.4,0.00,East,97,0.0,0.0,74,0.00,,---,0.00,VWS V14.01,2013-05-30 09:25:00,
2013-05-30 05:30:00,63.9,55.4,0.00,SE,141,0.0,0.0,74,0.00,,---,0.00,VWS V14.01,2013-05-30 09:30:00,
2013-05-30 05:35:00,63.7,55.2,0.00,ESE,108,0.0,0.0,74,0.00,,---,0.00,VWS V14.01,2013-05-30 09:35:00,
2013-05-30 05:40:00,63.7,55.2,0.00,WSW,253,3.1,3.1,74,0.00,,---,0.00,VWS V14.01,2013-05-30 09:40:00,
2013-05-30 05:45:00,63.7,55.6,0.00,West,278,0.0,0.0,75,0.00,,---,0.00,VWS V14.01,2013-05-30 09:45:00,
2013-05-30 05:50:00,63.9,55.8,0.00,West,278,0.0,0.0,75,0.00,,---,0.00,VWS V14.01,2013-05-30 09:50:00,
2013-05-30 05:55:00,63.9,56.2,0.00,NE,54,0.0,0.0,76,0.00,,---,0.00,VWS V14.01,2013-05-30 09:55:00,
2013-05-30 06:00:00,64.0,56.3,0.00,NNE,31,2.7,2.7,76,0.00,,---,0.00,VWS V14.01,2013-05-30 10:00:00,
2013-05-30 06:05:00,64.0,56.3,0.00,NNW,345,0.0,2.7,76,0.00,,---,0.00,VWS V14.01,2013-05-30 10:05:00,
2013-05-30 06:10:00,64.0,56.3,0.00,NNW,344,0.0,0.0,76,0.00,,---,0.00,VWS V14.01,2013-05-30 10:10:00,
2013-05-30 06:15:00,64.0,56.3,0.00,WSW,252,2.2,2.2,76,0.00,,---,0.00,VWS V14.01,2013-05-30 10:15:00,
2013-05-30 06:20:00,64.0,56.3,0.00,WSW,252,0.0,0.0,76,0.00,,---,0.00,VWS V14.01,2013-05-30 10:20:00,
2013-05-30 06:25:00,64.2,56.9,0.00,NNW,335,0.0,0.0,77,0.00,,---,0.00,VWS V14.01,2013-05-30 10:25:00,
2013-05-30 06:30:00,64.2,56.9,0.00,NNW,335,0.0,0.0,77,0.00,,---,0.00,VWS V14.01,2013-05-30 10:30:00,
2013-05-30 06:35:00,64.2,57.2,0.00,NW,310,0.0,0.0,78,0.00,,---,0.00,VWS V14.01,2013-05-30 10:35:00,
2013-05-30 06:40:00,64.2,57.2,0.00,NW,310,0.0,0.0,78,0.00,,---,0.00,VWS V14.01,2013-05-30 10:40:00,
2013-05-30 06:45:00,64.2,57.2,0.00,East,90,0.0,0.0,78,0.00,,---,0.00,VWS V14.01,2013-05-30 10:45:00,
2013-05-30 06:50:00,64.2,57.2,0.00,NNW,340,0.0,0.0,78,0.00,,---,0.00,VWS V14.01,2013-05-30 10:50:00,
2013-05-30 06:55:00,64.4,57.4,0.00,NNW,340,0.0,0.0,78,0.00,,---,0.00,VWS V14.01,2013-05-30 10:55:00,
2013-05-30 07:00:00,64.4,57.4,0.00,NNW,329,0.0,0.0,78,0.00,,---,0.00,VWS V14.01,2013-05-30 11:00:00,
2013-05-30 07:05:00,64.4,57.4,0.00,WNW,283,0.0,0.0,78,0.00,,---,0.00,VWS V14.01,2013-05-30 11:05:00,
2013-05-30 07:10:00,64.8,58.1,0.00,ENE,63,0.0,0.0,79,0.00,,---,0.00,VWS V14.01,2013-05-30 11:10:00,
2013-05-30 07:15:00,64.8,58.1,0.00,East,85,0.0,0.0,79,0.00,,---,0.00,VWS V14.01,2013-05-30 11:15:00,
2013-05-30 07:20:00,64.8,58.1,0.00,East,85,0.0,0.0,79,0.00,,---,0.00,VWS V14.01,2013-05-30 11:20:00,
2013-05-30 07:25:00,64.9,58.3,0.00,East,85,0.0,0.0,79,0.00,,---,0.00,VWS V14.01,2013-05-30 11:25:00,
2013-05-30 07:30:00,64.9,58.3,0.00,East,85,0.0,0.0,79,0.00,,---,0.00,VWS V14.01,2013-05-30 11:30:00,
2013-05-30 07:35:00,65.1,58.5,0.00,ESE,111,0.0,0.0,79,0.00,,---,0.00,VWS V14.01,2013-05-30 11:35:00,
2013-05-30 07:40:00,65.3,58.6,0.00,ESE,111,0.0,0.0,79,0.00,,---,0.00,VWS V14.01,2013-05-30 11:40:00,
2013-05-30 07:45:00,65.3,58.6,0.00,SE,144,0.0,0.0,79,0.00,,---,0.00,VWS V14.01,2013-05-30 11:45:00,
2013-05-30 07:50:00,65.3,58.6,0.00,SE,144,0.0,0.0,79,0.00,,---,0.00,VWS V14.01,2013-05-30 11:50:00,
2013-05-30 07:55:00,65.5,59.2,0.00,East,101,3.6,3.6,80,0.00,,---,0.00,VWS V14.01,2013-05-30 11:55:00,
2013-05-30 08:00:00,65.8,59.5,0.00,NE,48,0.0,0.0,80,0.00,,---,0.00,VWS V14.01,2013-05-30 12:00:00,
2013-05-30 08:05:00,65.8,59.5,0.00,NE,48,0.0,0.0,80,0.00,,---,0.00,VWS V14.01,2013-05-30 12:05:00,
2013-05-30 08:10:00,66.0,59.7,0.00,NE,48,0.0,0.0,80,0.00,,---,0.00,VWS V14.01,2013-05-30 12:10:00,
2013-05-30 08:15:00,66.0,59.7,0.00,NE,39,0.0,0.0,80,0.00,,---,0.00,VWS V14.01,2013-05-30 12:15:00,
2013-05-30 08:20:00,66.4,60.0,0.00,West,266,4.0,4.0,80,0.00,,---,0.00,VWS V14.01,2013-05-30 12:20:00,
2013-05-30 08:25:00,66.6,60.2,0.00,NNW,338,0.0,0.0,80,0.00,,---,0.00,VWS V14.01,2013-05-30 12:25:00,
2013-05-30 08:30:00,66.6,60.2,0.00,WSW,249,0.0,0.0,80,0.00,,---,0.00,VWS V14.01,2013-05-30 12:30:00,
2013-05-30 08:35:00,66.7,60.0,0.00,SSE,159,0.0,0.0,79,0.00,,---,0.00,VWS V14.01,2013-05-30 12:35:00,
2013-05-30 08:40:00,66.9,60.2,0.00,West,268,3.1,3.1,79,0.00,,---,0.00,VWS V14.01,2013-05-30 12:40:00,
2013-05-30 08:45:00,67.1,60.4,0.00,ENE,65,0.0,0.0,79,0.00,,---,0.00,VWS V14.01,2013-05-30 12:45:00,
2013-05-30 08:50:00,67.3,60.5,0.00,NW,307,3.1,3.1,79,0.00,,---,0.00,VWS V14.01,2013-05-30 12:50:00,
2013-05-30 08:55:00,67.5,60.7,0.00,NNW,340,4.0,4.0,79,0.00,,---,0.00,VWS V14.01,2013-05-30 12:55:00,
2013-05-30 09:00:00,67.6,60.5,0.00,WNW,293,2.7,2.7,78,0.00,,---,0.00,VWS V14.01,2013-05-30 13:00:00,
2013-05-30 09:05:00,67.6,60.2,0.00,South,187,3.1,3.1,77,0.00,,---,0.00,VWS V14.01,2013-05-30 13:05:00,
2013-05-30 09:10:00,67.8,60.3,0.00,West,261,0.0,0.0,77,0.00,,---,0.00,VWS V14.01,2013-05-30 13:10:00,
2013-05-30 09:15:00,67.8,60.3,0.00,SE,142,0.0,0.0,77,0.00,,---,0.00,VWS V14.01,2013-05-30 13:15:00,
2013-05-30 09:20:00,68.0,60.2,0.00,WSW,257,3.6,3.6,76,0.00,,---,0.00,VWS V14.01,2013-05-30 13:20:00,
2013-05-30 09:25:00,68.0,59.8,0.00,West,265,3.1,3.1,75,0.00,,---,0.00,VWS V14.01,2013-05-30 13:25:00,
2013-05-30 09:30:00,68.0,59.8,0.00,SSE,149,3.1,3.1,75,0.00,,---,0.00,VWS V14.01,2013-05-30 13:30:00,
2013-05-30 09:35:00,68.2,59.6,0.00,ENE,73,0.0,0.0,74,0.00,,---,0.00,VWS V14.01,2013-05-30 13:35:00,
2013-05-30 09:40:00,68.4,59.8,0.00,ENE,65,0.0,0.0,74,0.00,,---,0.00,VWS V14.01,2013-05-30 13:40:00,
2013-05-30 09:45:00,68.5,59.9,0.00,SSE,153,0.0,0.0,74,0.00,,---,0.00,VWS V14.01,2013-05-30 13:45:00,
2013-05-30 09:50:00,68.5,59.9,0.00,NNE,17,2.2,3.1,74,0.00,,---,0.00,VWS V14.01,2013-05-30 13:50:00,
2013-05-30 09:55:00,68.7,59.7,0.00,SW,220,0.0,0.0,73,0.00,,---,0.00,VWS V14.01,2013-05-30 13:55:00,
2013-05-30 10:00:00,68.7,59.7,0.00,NW,313,6.3,6.3,73,0.00,,---,0.00,VWS V14.01,2013-05-30 14:00:00,
2013-05-30 10:05:00,68.7,59.7,0.00,ESE,102,4.0,4.0,73,0.00,,---,0.00,VWS V14.01,2013-05-30 14:05:00,
2013-05-30 10:10:00,69.1,59.3,0.00,West,272,4.9,4.9,71,0.00,,---,0.00,VWS V14.01,2013-05-30 14:10:00,
2013-05-30 10:15:00,69.1,59.3,0.00,East,99,0.0,0.0,71,0.00,,---,0.00,VWS V14.01,2013-05-30 14:15:00,
2013-05-30 10:20:00,69.6,59.4,0.00,South,186,0.0,0.0,70,0.00,,---,0.00,VWS V14.01,2013-05-30 14:20:00,
2013-05-30 10:25:00,69.6,58.6,0.00,SSE,168,4.9,4.9,68,0.00,,---,0.00,VWS V14.01,2013-05-30 14:25:00,
2013-05-30 10:30:00,69.6,58.6,0.00,SSE,153,2.7,2.7,68,0.00,,---,0.00,VWS V14.01,2013-05-30 14:30:00,
2013-05-30 10:35:00,70.0,57.3,0.00,ESE,119,2.7,2.7,64,0.00,,---,0.00,VWS V14.01,2013-05-30 14:35:00,
2013-05-30 10:40:00,70.0,57.3,0.00,East,98,3.6,3.6,64,0.00,,---,0.00,VWS V14.01,2013-05-30 14:40:00,
2013-05-30 10:45:00,70.3,56.3,0.00,SSW,198,0.0,0.0,61,0.00,,---,0.00,VWS V14.01,2013-05-30 14:45:00,
2013-05-30 10:50:00,70.3,56.3,0.00,South,170,3.1,3.1,61,0.00,,---,0.00,VWS V14.01,2013-05-30 14:50:00,
2013-05-30 10:55:00,70.7,56.2,0.00,NNW,340,2.7,2.7,60,0.00,,---,0.00,VWS V14.01,2013-05-30 14:55:00,
2013-05-30 11:00:00,70.7,56.2,0.00,North,6,2.7,2.7,60,0.00,,---,0.00,VWS V14.01,2013-05-30 15:00:00,
2013-05-30 11:05:00,70.9,55.8,0.00,WSW,251,2.2,2.2,59,0.00,,---,0.00,VWS V14.01,2013-05-30 15:05:00,
2013-05-30 11:10:00,71.2,55.7,0.00,WSW,251,2.2,2.2,58,0.00,,---,0.00,VWS V14.01,2013-05-30 15:10:00,
2013-05-30 11:15:00,71.2,55.7,0.00,NE,48,2.7,2.7,58,0.00,,---,0.00,VWS V14.01,2013-05-30 15:15:00,
2013-05-30 11:20:00,71.8,54.8,0.00,NE,48,2.7,2.7,55,0.00,,---,0.00,VWS V14.01,2013-05-30 15:20:00,
2013-05-30 11:25:00,72.0,54.4,0.00,WSW,240,3.6,3.6,54,0.00,,---,0.00,VWS V14.01,2013-05-30 15:25:00,
2013-05-30 11:30:00,72.1,51.4,0.00,NE,48,3.6,3.6,48,0.00,,---,0.00,VWS V14.01,2013-05-30 15:30:00,
2013-05-30 11:35:00,72.1,51.4,0.00,NW,320,4.0,4.0,48,0.00,,---,0.00,VWS V14.01,2013-05-30 15:35:00,
2013-05-30 11:40:00,71.8,50.5,0.00,SW,223,4.0,4.0,47,0.00,,---,0.00,VWS V14.01,2013-05-30 15:40:00,
2013-05-30 11:45:00,72.7,53.0,0.00,East,88,3.1,3.1,50,0.00,,---,0.00,VWS V14.01,2013-05-30 15:45:00,
2013-05-30 11:50:00,73.2,51.8,0.00,WSW,250,4.0,4.0,47,0.00,,---,0.00,VWS V14.01,2013-05-30 15:50:00,
2013-05-30 11:55:00,73.2,51.8,0.00,NNW,330,4.0,4.0,47,0.00,,---,0.00,VWS V14.01,2013-05-30 15:55:00,
2013-05-30 12:00:00,72.7,49.5,0.00,ESE,118,5.4,5.4,44,0.00,,---,0.00,VWS V14.01,2013-05-30 16:00:00,
2013-05-30 12:05:00,72.5,50.0,0.00,WSW,256,3.6,5.4,45,0.00,,---,0.00,VWS V14.01,2013-05-30 16:05:00,
2013-05-30 12:10:00,72.5,50.0,0.00,WSW,256,3.6,3.6,45,0.00,,---,0.00,VWS V14.01,2013-05-30 16:10:00,
2013-05-30 12:15:00,73.4,51.4,0.00,North,357,0.0,0.0,46,0.00,,---,0.00,VWS V14.01,2013-05-30 16:15:00,
2013-05-30 12:20:00,73.4,51.4,0.00,NNW,340,3.1,3.1,46,0.00,,---,0.00,VWS V14.01,2013-05-30 16:20:00,
2013-05-30 12:25:00,73.4,51.4,0.00,East,87,2.7,2.7,46,0.00,,---,0.00,VWS V14.01,2013-05-30 16:25:00,
2013-05-30 12:30:00,74.8,50.9,0.00,South,180,6.3,6.3,43,0.00,,---,0.00,VWS V14.01,2013-05-30 16:30:00,
2013-05-30 12:35:00,74.8,50.9,0.00,WSW,246,5.4,5.4,43,0.00,,---,0.00,VWS V14.01,2013-05-30 16:35:00,
2013-05-30 12:40:00,75.2,49.9,0.00,SSE,160,4.0,4.0,41,0.00,,---,0.00,VWS V14.01,2013-05-30 16:40:00,
2013-05-30 12:45:00,75.2,49.9,0.00,North,10,4.9,4.9,41,0.00,,---,0.00,VWS V14.01,2013-05-30 16:45:00,
2013-05-30 12:49:00,75.2,49.9,0.00,West,278,0.0,4.9,41,0.00,,---,0.00,VWS V14.01,2013-05-30 16:49:00,
2013-05-30 12:54:00,75.6,49.6,0.00,WNW,297,3.6,3.6,40,0.00,,---,0.00,VWS V14.01,2013-05-30 16:54:00,
2013-05-30 12:59:00,75.7,49.7,0.00,WNW,297,3.6,3.6,40,0.00,,---,0.00,VWS V14.01,2013-05-30 16:59:00,
2013-05-30 13:04:00,76.1,50.0,0.00,ESE,123,3.1,3.1,40,0.00,,---,0.00,VWS V14.01,2013-05-30 17:04:00,
2013-05-30 13:09:00,76.1,50.0,0.00,North,357,5.4,5.4,40,0.00,,---,0.00,VWS V14.01,2013-05-30 17:09:00,
2013-05-30 13:14:00,76.1,50.0,0.00,North,357,5.4,5.4,40,0.00,,---,0.00,VWS V14.01,2013-05-30 17:14:00,
2013-05-30 13:19:00,75.9,49.2,0.00,East,80,5.4,5.4,39,0.00,,---,0.00,VWS V14.01,2013-05-30 17:19:00,
2013-05-30 13:24:00,75.9,49.2,0.00,ESE,103,0.0,5.4,39,0.00,,---,0.00,VWS V14.01,2013-05-30 17:24:00,
2013-05-30 13:29:00,76.5,49.0,0.00,WSW,252,3.1,3.1,38,0.00,,---,0.00,VWS V14.01,2013-05-30 17:29:00,
2013-05-30 13:35:00,76.5,49.0,0.00,ESE,120,3.1,3.1,38,0.00,,---,0.00,VWS V14.01,2013-05-30 17:35:00,
2013-05-30 13:40:00,76.5,48.3,0.00,East,95,5.8,5.8,37,0.00,,---,0.00,VWS V14.01,2013-05-30 17:40:00,
2013-05-30 13:45:00,76.5,48.3,0.00,WNW,284,2.7,2.7,37,0.00,,---,0.00,VWS V14.01,2013-05-30 17:45:00,
2013-05-30 13:50:00,76.3,47.4,0.00,SW,234,5.4,5.4,36,0.00,,---,0.00,VWS V14.01,2013-05-30 17:50:00,
2013-05-30 13:55:00,75.9,48.5,0.00,SE,125,2.7,2.7,38,0.00,,---,0.00,VWS V14.01,2013-05-30 17:55:00,
2013-05-30 13:59:00,75.9,48.5,0.00,NE,36,5.4,5.4,38,0.00,,---,0.00,VWS V14.01,2013-05-30 17:59:00,
2013-05-30 14:04:00,76.5,48.3,0.00,NE,36,5.4,5.4,37,0.00,,---,0.00,VWS V14.01,2013-05-30 18:04:00,
2013-05-30 14:09:00,76.6,49.2,0.00,SW,231,0.0,0.0,38,0.00,,---,0.00,VWS V14.01,2013-05-30 18:09:00,
2013-05-30 14:14:00,76.6,49.2,0.00,South,184,0.0,0.0,38,0.00,,---,0.00,VWS V14.01,2013-05-30 18:14:00,
2013-05-30 14:19:00,76.6,47.7,0.00,West,264,5.4,5.4,36,0.00,,---,0.00,VWS V14.01,2013-05-30 18:19:00,
2013-05-30 14:24:00,76.8,48.6,0.00,West,264,5.4,5.4,37,0.00,,---,0.00,VWS V14.01,2013-05-30 18:24:00,
2013-05-30 14:29:00,77.4,48.3,0.00,West,264,5.4,5.4,36,0.00,,---,0.00,VWS V14.01,2013-05-30 18:29:00,
2013-05-30 14:34:00,77.4,47.6,0.00,ENE,71,2.7,2.7,35,0.00,,---,0.00,VWS V14.01,2013-05-30 18:34:00,
2013-05-30 14:39:00,77.4,47.6,0.00,ENE,71,2.7,2.7,35,0.00,,---,0.00,VWS V14.01,2013-05-30 18:39:00,
2013-05-30 14:44:00,77.9,48.1,0.00,SE,145,5.4,5.4,35,0.00,,---,0.00,VWS V14.01,2013-05-30 18:44:00,
2013-05-30 14:49:00,78.1,47.5,0.00,SE,145,5.4,5.4,34,0.00,,---,0.00,VWS V14.01,2013-05-30 18:49:00,
2013-05-30 14:54:00,77.9,47.3,0.00,SE,145,5.4,5.4,34,0.00,,---,0.00,VWS V14.01,2013-05-30 18:54:00,
2013-05-30 14:59:00,77.9,47.3,0.00,ESE,102,3.6,3.6,34,0.00,,---,0.00,VWS V14.01,2013-05-30 18:59:00,
2013-05-30 15:04:00,77.9,47.3,0.00,West,274,4.0,4.0,34,0.00,,---,0.00,VWS V14.01,2013-05-30 19:04:00,
2013-05-30 15:09:00,77.9,47.3,0.00,WSW,258,3.6,3.6,34,0.00,,---,0.00,VWS V14.01,2013-05-30 19:09:00,
2013-05-30 15:14:00,78.3,47.6,0.00,WSW,258,3.6,3.6,34,0.00,,---,0.00,VWS V14.01,2013-05-30 19:14:00,
2013-05-30 15:19:00,78.3,47.6,0.00,WSW,258,3.6,3.6,34,0.00,,---,0.00,VWS V14.01,2013-05-30 19:19:00,
2013-05-30 15:24:00,78.6,47.9,0.00,West,266,4.0,4.0,34,0.00,,---,0.00,VWS V14.01,2013-05-30 19:24:00,
2013-05-30 15:29:00,78.6,47.9,0.00,SE,127,2.7,2.7,34,0.00,,---,0.00,VWS V14.01,2013-05-30 19:29:00,
2013-05-30 15:34:00,78.6,47.9,0.00,West,278,2.2,2.2,34,0.00,,---,0.00,VWS V14.01,2013-05-30 19:34:00,
2013-05-30 15:39:00,78.4,47.0,0.00,SSE,150,5.4,5.4,33,0.00,,---,0.00,VWS V14.01,2013-05-30 19:39:00,
2013-05-30 15:44:00,78.4,47.0,0.00,NE,45,6.3,6.3,33,0.00,,---,0.00,VWS V14.01,2013-05-30 19:44:00,
2013-05-30 15:49:00,78.3,46.8,0.00,West,264,2.7,2.7,33,0.00,,---,0.00,VWS V14.01,2013-05-30 19:49:00,
2013-05-30 15:54:00,77.9,46.5,0.00,WSW,240,5.4,5.4,33,0.00,,---,0.00,VWS V14.01,2013-05-30 19:54:00,
2013-05-30 15:59:00,77.7,47.1,0.00,SW,234,4.0,4.5,34,0.00,,---,0.00,VWS V14.01,2013-05-30 19:59:00,
2013-05-30 16:04:00,77.9,47.3,0.00,ESE,108,8.1,8.1,34,0.00,,---,0.00,VWS V14.01,2013-05-30 20:04:00,
2013-05-30 16:09:00,77.9,47.3,0.00,ESE,102,4.0,4.0,34,0.00,,---,0.00,VWS V14.01,2013-05-30 20:09:00,
2013-05-30 16:14:00,78.1,47.5,0.00,WSW,252,3.1,3.1,34,0.00,,---,0.00,VWS V14.01,2013-05-30 20:14:00,
2013-05-30 16:19:00,78.4,47.8,0.00,WSW,252,3.1,3.1,34,0.00,,---,0.00,VWS V14.01,2013-05-30 20:19:00,
2013-05-30 16:24:00,78.6,47.9,0.00,NW,311,3.1,3.1,34,0.00,,---,0.00,VWS V14.01,2013-05-30 20:24:00,
2013-05-30 16:29:00,78.4,47.0,0.00,NW,325,0.0,0.0,33,0.00,,---,0.00,VWS V14.01,2013-05-30 20:29:00,
2013-05-30 16:34:00,78.4,47.8,0.00,NNE,29,3.1,3.1,34,0.00,,---,0.00,VWS V14.01,2013-05-30 20:34:00,
2013-05-30 16:39:00,78.3,46.8,0.00,NNE,29,3.1,3.1,33,0.00,,---,0.00,VWS V14.01,2013-05-30 20:39:00,
2013-05-30 16:44:00,78.3,46.8,0.00,South,169,4.0,4.0,33,0.00,,---,0.00,VWS V14.01,2013-05-30 20:44:00,
2013-05-30 16:49:00,77.9,46.5,0.00,ESE,119,4.0,4.0,33,0.00,,---,0.00,VWS V14.01,2013-05-30 20:49:00,
2013-05-30 16:54:00,77.7,46.3,0.00,NW,322,4.0,4.0,33,0.00,,---,0.00,VWS V14.01,2013-05-30 20:54:00,
2013-05-30 16:59:00,77.7,46.3,0.00,SSE,168,0.0,0.0,33,0.00,,---,0.00,VWS V14.01,2013-05-30 20:59:00,
2013-05-30 17:04:00,77.9,47.3,0.00,NNE,26,3.6,3.6,34,0.00,,---,0.00,VWS V14.01,2013-05-30 21:04:00,
2013-05-30 17:09:00,77.9,47.3,0.00,NNE,25,2.7,2.7,34,0.00,,---,0.00,VWS V14.01,2013-05-30 21:09:00,
2013-05-30 17:14:00,77.9,47.3,0.00,NNE,25,2.7,2.7,34,0.00,,---,0.00,VWS V14.01,2013-05-30 21:14:00,
2013-05-30 17:19:00,77.7,47.1,0.00,SW,234,2.7,2.7,34,0.00,,---,0.00,VWS V14.01,2013-05-30 21:19:00,
2013-05-30 17:24:00,77.7,47.1,0.00,SW,232,2.2,2.2,34,0.00,,---,0.00,VWS V14.01,2013-05-30 21:24:00,
2013-05-30 17:29:00,77.7,47.9,0.00,WNW,294,0.0,0.0,35,0.00,,---,0.00,VWS V14.01,2013-05-30 21:29:00,
2013-05-30 17:34:00,77.7,47.9,0.00,NE,51,2.2,2.2,35,0.00,,---,0.00,VWS V14.01,2013-05-30 21:34:00,
2013-05-30 17:39:00,77.7,47.1,0.00,SSW,199,5.4,5.4,34,0.00,,---,0.00,VWS V14.01,2013-05-30 21:39:00,
2013-05-30 17:44:00,77.7,47.1,0.00,NW,318,2.2,2.2,34,0.00,,---,0.00,VWS V14.01,2013-05-30 21:44:00,
2013-05-30 17:49:00,77.5,47.0,0.00,NW,318,2.2,2.2,34,0.00,,---,0.00,VWS V14.01,2013-05-30 21:49:00,
2013-05-30 17:54:00,77.5,47.0,0.00,ENE,69,3.1,3.1,34,0.00,,---,0.00,VWS V14.01,2013-05-30 21:54:00,
2013-05-30 17:59:00,77.5,47.0,0.00,West,272,5.8,5.8,34,0.00,,---,0.00,VWS V14.01,2013-05-30 21:59:00,
2013-05-30 18:04:00,77.5,47.0,0.00,SW,215,4.0,4.0,34,0.00,,---,0.00,VWS V14.01,2013-05-30 22:04:00,
2013-05-30 18:09:00,77.5,47.0,0.00,West,260,0.0,2.2,34,0.00,,---,0.00,VWS V14.01,2013-05-30 22:09:00,
2013-05-30 18:14:00,77.5,47.0,0.00,NW,308,4.0,4.0,34,0.00,,---,0.00,VWS V14.01,2013-05-30 22:14:00,
2013-05-30 18:19:00,77.4,47.6,0.00,NNE,17,3.6,3.6,35,0.00,,---,0.00,VWS V14.01,2013-05-30 22:19:00,
2013-05-30 18:24:00,77.4,47.6,0.00,East,85,3.1,3.1,35,0.00,,---,0.00,VWS V14.01,2013-05-30 22:24:00,
2013-05-30 18:29:00,77.2,47.4,0.00,WSW,254,0.0,0.0,35,0.00,,---,0.00,VWS V14.01,2013-05-30 22:29:00,
2013-05-30 18:34:00,77.2,47.4,0.00,ENE,74,5.8,5.8,35,0.00,,---,0.00,VWS V14.01,2013-05-30 22:34:00,
2013-05-30 18:39:00,77.2,47.4,0.00,WSW,251,4.0,4.0,35,0.00,,---,0.00,VWS V14.01,2013-05-30 22:39:00,
2013-05-30 18:44:00,77.2,47.4,0.00,NE,38,6.3,6.3,35,0.00,,---,0.00,VWS V14.01,2013-05-30 22:44:00,
2013-05-30 18:49:00,77.0,47.3,0.00,NW,309,4.0,4.0,35,0.00,,---,0.00,VWS V14.01,2013-05-30 22:49:00,
2013-05-30 18:54:00,76.8,47.9,0.00,WSW,243,3.1,3.1,36,0.00,,---,0.00,VWS V14.01,2013-05-30 22:54:00,
2013-05-30 18:59:00,76.6,47.7,0.00,WSW,243,3.1,3.1,36,0.00,,---,0.00,VWS V14.01,2013-05-30 22:59:00,
2013-05-30 19:04:00,76.5,47.5,0.00,NW,317,2.7,3.1,36,0.00,,---,0.00,VWS V14.01,2013-05-30 23:04:00,
2013-05-30 19:09:00,76.5,47.5,0.00,SE,131,0.0,0.0,36,0.00,,---,0.00,VWS V14.01,2013-05-30 23:09:00,
2013-05-30 19:14:00,76.3,48.1,0.00,SE,131,0.0,0.0,37,0.00,,---,0.00,VWS V14.01,2013-05-30 23:14:00,
2013-05-30 19:19:00,76.3,48.1,0.00,SSE,150,0.0,0.0,37,0.00,,---,0.00,VWS V14.01,2013-05-30 23:19:00,
2013-05-30 19:24:00,76.1,48.7,0.00,SE,144,3.1,3.1,38,0.00,,---,0.00,VWS V14.01,2013-05-30 23:24:00,
2013-05-30 19:29:00,75.7,49.0,0.00,South,176,0.0,0.0,39,0.00,,---,0.00,VWS V14.01,2013-05-30 23:29:00,
2013-05-30 19:34:00,75.7,49.0,0.00,East,98,0.0,0.0,39,0.00,,---,0.00,VWS V14.01,2013-05-30 23:34:00,
2013-05-30 19:39:00,75.4,48.7,0.00,SSE,159,2.7,2.7,39,0.00,,---,0.00,VWS V14.01,2013-05-30 23:39:00,
2013-05-30 19:44:00,75.4,49.4,0.00,West,268,0.0,0.0,40,0.00,,---,0.00,VWS V14.01,2013-05-30 23:44:00,
2013-05-30 19:49:00,75.2,49.9,0.00,West,268,0.0,0.0,41,0.00,,---,0.00,VWS V14.01,2013-05-30 23:49:00,
2013-05-30 19:54:00,74.8,50.2,0.00,North,0,0.0,0.0,42,0.00,,---,0.00,VWS V14.01,2013-05-30 23:54:00,
2013-05-30 19:59:00,74.7,50.1,0.00,SE,135,0.0,0.0,42,0.00,,---,0.00,VWS V14.01,2013-05-30 23:59:00,
2013-05-30 20:04:00,74.5,49.9,0.00,ESE,118,0.0,0.0,42,0.00,,---,0.00,VWS V14.01,2013-05-31 00:04:00,
2013-05-30 20:09:00,74.5,49.9,0.00,ESE,118,0.0,0.0,42,0.00,,---,0.00,VWS V14.01,2013-05-31 00:09:00,
2013-05-30 20:14:00,73.8,49.9,0.00,WNW,285,0.0,0.0,43,0.00,,---,0.00,VWS V14.01,2013-05-31 00:14:00,
2013-05-30 20:19:00,73.8,49.9,0.00,WSW,244,0.0,0.0,43,0.00,,---,0.00,VWS V14.01,2013-05-31 00:19:00,
2013-05-30 20:24:00,73.0,49.9,0.00,WSW,244,0.0,0.0,44,0.00,,---,0.00,VWS V14.01,2013-05-31 00:24:00,
2013-05-30 20:29:00,73.0,49.9,0.00,WSW,244,0.0,0.0,44,0.00,,---,0.00,VWS V14.01,2013-05-31 00:29:00,
2013-05-30 20:34:00,72.1,49.7,0.00,WSW,244,0.0,0.0,45,0.00,,---,0.00,VWS V14.01,2013-05-31 00:34:00,
2013-05-30 20:39:00,71.6,50.3,0.00,SSE,155,0.0,0.0,47,0.00,,---,0.00,VWS V14.01,2013-05-31 00:39:00,
2013-05-30 20:44:00,71.6,50.3,0.00,SSE,155,0.0,0.0,47,0.00,,---,0.00,VWS V14.01,2013-05-31 00:44:00,
2013-05-30 20:49:00,70.9,50.2,0.00,SSE,155,0.0,0.0,48,0.00,,---,0.00,VWS V14.01,2013-05-31 00:49:00,
2013-05-30 20:54:00,70.5,50.5,0.00,SSE,155,0.0,0.0,49,0.00,,---,0.00,VWS V14.01,2013-05-31 00:54:00,
2013-05-30 20:59:00,70.5,50.5,0.00,SSE,155,0.0,0.0,49,0.00,,---,0.00,VWS V14.01,2013-05-31 00:59:00,
2013-05-30 21:04:00,70.0,51.0,0.00,SSE,155,0.0,0.0,51,0.00,,---,0.00,VWS V14.01,2013-05-31 01:04:00,
2013-05-30 21:09:00,69.6,51.2,0.00,SSE,155,0.0,0.0,52,0.00,,---,0.00,VWS V14.01,2013-05-31 01:09:00,
2013-05-30 21:14:00,69.4,51.6,0.00,SSE,155,0.0,0.0,53,0.00,,---,0.00,VWS V14.01,2013-05-31 01:14:00,
2013-05-30 21:19:00,69.4,51.6,0.00,SSE,155,0.0,0.0,53,0.00,,---,0.00,VWS V14.01,2013-05-31 01:19:00,
2013-05-30 21:24:00,69.4,51.6,0.00,SSE,155,0.0,0.0,53,0.00,,---,0.00,VWS V14.01,2013-05-31 01:24:00,
2013-05-30 21:29:00,69.4,51.6,0.00,SSE,155,0.0,0.0,53,0.00,,---,0.00,VWS V14.01,2013-05-31 01:29:00,
2013-05-30 21:34:00,68.7,51.9,0.00,SSE,155,0.0,0.0,55,0.00,,---,0.00,VWS V14.01,2013-05-31 01:34:00,
2013-05-30 21:39:00,68.4,52.1,0.00,SSE,155,0.0,0.0,56,0.00,,---,0.00,VWS V14.01,2013-05-31 01:39:00,
2013-05-30 21:44:00,68.2,52.4,0.00,SSE,155,0.0,0.0,57,0.00,,---,0.00,VWS V14.01,2013-05-31 01:44:00,
2013-05-30 21:49:00,68.0,52.2,0.00,SSE,155,0.0,0.0,57,0.00,,---,0.00,VWS V14.01,2013-05-31 01:49:00,
2013-05-30 21:54:00,67.8,52.5,0.00,SSE,155,0.0,0.0,58,0.00,,---,0.00,VWS V14.01,2013-05-31 01:54:00,
2013-05-30 21:59:00,67.6,52.8,0.00,SSE,155,0.0,0.0,59,0.00,,---,0.00,VWS V14.01,2013-05-31 01:59:00,
2013-05-30 22:04:00,67.5,52.7,0.00,SSE,155,0.0,0.0,59,0.00,,---,0.00,VWS V14.01,2013-05-31 02:04:00,
2013-05-30 22:09:00,67.3,52.5,0.00,SSE,155,0.0,0.0,59,0.00,,---,0.00,VWS V14.01,2013-05-31 02:09:00,
2013-05-30 22:14:00,67.1,52.8,0.00,SSE,155,0.0,0.0,60,0.00,,---,0.00,VWS V14.01,2013-05-31 02:14:00,
2013-05-30 22:19:00,66.9,52.6,0.00,SSE,155,0.0,0.0,60,0.00,,---,0.00,VWS V14.01,2013-05-31 02:19:00,
2013-05-30 22:24:00,66.7,52.4,0.00,SSE,155,0.0,0.0,60,0.00,,---,0.00,VWS V14.01,2013-05-31 02:24:00,
2013-05-30 22:29:00,66.6,52.7,0.00,SSE,155,0.0,0.0,61,0.00,,---,0.00,VWS V14.01,2013-05-31 02:29:00,
2013-05-30 22:34:00,66.4,52.5,0.00,SSE,155,0.0,0.0,61,0.00,,---,0.00,VWS V14.01,2013-05-31 02:34:00,
2013-05-30 22:39:00,66.2,52.8,0.00,SSE,155,0.0,0.0,62,0.00,,---,0.00,VWS V14.01,2013-05-31 02:39:00,
2013-05-30 22:44:00,66.0,53.1,0.00,SSE,155,0.0,0.0,63,0.00,,---,0.00,VWS V14.01,2013-05-31 02:44:00,
2013-05-30 22:49:00,66.0,53.1,0.00,SSE,155,0.0,0.0,63,0.00,,---,0.00,VWS V14.01,2013-05-31 02:49:00,
2013-05-30 22:54:00,65.8,52.9,0.00,SSE,155,0.0,0.0,63,0.00,,---,0.00,VWS V14.01,2013-05-31 02:54:00,
2013-05-30 22:59:00,65.7,52.7,0.00,SSE,155,0.0,0.0,63,0.00,,---,0.00,VWS V14.01,2013-05-31 02:59:00,
2013-05-30 23:04:00,65.7,52.7,0.00,SSE,155,0.0,0.0,63,0.00,,---,0.00,VWS V14.01,2013-05-31 03:04:00,
2013-05-30 23:09:00,65.5,53.0,0.00,SSE,155,0.0,0.0,64,0.00,,---,0.00,VWS V14.01,2013-05-31 03:09:00,
2013-05-30 23:14:00,65.5,53.0,0.00,SSE,155,0.0,0.0,64,0.00,,---,0.00,VWS V14.01,2013-05-31 03:14:00,
2013-05-30 23:19:00,65.5,53.0,0.00,SSE,155,0.0,0.0,64,0.00,,---,0.00,VWS V14.01,2013-05-31 03:19:00,
2013-05-30 23:24:00,64.9,52.5,0.00,SSE,155,0.0,0.0,64,0.00,,---,0.00,VWS V14.01,2013-05-31 03:24:00,
2013-05-30 23:29:00,64.8,52.7,0.00,SSE,155,0.0,0.0,65,0.00,,---,0.00,VWS V14.01,2013-05-31 03:29:00,
2013-05-30 23:34:00,64.6,52.6,0.00,SSE,155,0.0,0.0,65,0.00,,---,0.00,VWS V14.01,2013-05-31 03:34:00,
2013-05-30 23:39:00,64.6,52.6,0.00,SSE,155,0.0,0.0,65,0.00,,---,0.00,VWS V14.01,2013-05-31 03:39:00,
2013-05-30 23:44:00,64.2,53.0,0.00,SSE,155,0.0,0.0,67,0.00,,---,0.00,VWS V14.01,2013-05-31 03:44:00,
2013-05-30 23:49:00,64.0,52.9,0.00,SSE,155,0.0,0.0,67,0.00,,---,0.00,VWS V14.01,2013-05-31 03:49:00,
2013-05-30 23:54:00,64.0,52.9,0.00,SSE,155,0.0,0.0,67,0.00,,---,0.00,VWS V14.01,2013-05-31 03:54:00,
2013-05-30 23:59:00,63.9,52.7,0.00,SSE,155,0.0,0.0,67,0.00,,---,0.00,VWS V14.01,2013-05-31 03:59:00,